createdAt,value
2023-02-20T00:02:15.408Z,8.40
2023-02-20T00:04:42.111Z,8.50
2023-02-20T00:07:08.819Z,8.30
2023-02-20T00:09:35.431Z,8.40
2023-02-20T00:12:02.071Z,8.40
2023-02-20T00:14:28.727Z,7.80
2023-02-20T00:16:55.376Z,8.10
2023-02-20T00:19:21.999Z,8.50
2023-02-20T00:21:48.668Z,8.80
2023-02-20T00:24:15.337Z,9.00
2023-02-20T00:26:41.994Z,8.50
2023-02-20T00:29:08.688Z,8.80
2023-02-20T00:31:35.386Z,9.20
2023-02-20T00:34:02.056Z,9.30
2023-02-20T00:36:28.737Z,9.40
2023-02-20T00:38:55.433Z,9.20
2023-02-20T00:41:22.144Z,9.40
2023-02-20T00:43:48.758Z,9.10
2023-02-20T00:46:15.983Z,9.30
2023-02-20T00:48:42.869Z,8.80
2023-02-20T00:51:09.528Z,9.10
2023-02-20T00:53:36.211Z,9.30
2023-02-20T00:56:02.909Z,8.90
2023-02-20T00:58:29.554Z,8.50
2023-02-20T01:00:56.233Z,8.80
2023-02-20T01:03:22.846Z,9.20
2023-02-20T01:05:49.641Z,9.30
2023-02-20T01:08:16.423Z,9.00
2023-02-20T01:10:43.128Z,9.10
2023-02-20T01:13:09.815Z,9.40
2023-02-20T01:15:36.527Z,9.50
2023-02-20T01:18:03.253Z,9.10
2023-02-20T01:20:29.917Z,8.80
2023-02-20T01:22:56.592Z,8.80
2023-02-20T01:25:23.265Z,9.00
2023-02-20T01:27:49.912Z,9.20
2023-02-20T01:30:16.559Z,9.30
2023-02-20T01:32:43.235Z,9.40
2023-02-20T01:35:09.954Z,9.10
2023-02-20T01:37:36.588Z,9.00
2023-02-20T01:40:03.296Z,9.00
2023-02-20T01:42:30.085Z,9.10
2023-02-20T01:44:57.041Z,8.90
2023-02-20T01:47:23.663Z,8.70
2023-02-20T01:49:50.327Z,8.90
2023-02-20T01:52:17.006Z,9.20
2023-02-20T01:54:43.634Z,9.00
2023-02-20T01:57:10.237Z,9.00
2023-02-20T01:59:36.916Z,9.20
2023-02-20T02:02:03.609Z,9.40
2023-02-20T02:04:30.283Z,9.30
2023-02-20T02:06:56.908Z,9.30
2023-02-20T02:09:23.567Z,9.20
2023-02-20T02:11:50.221Z,9.20
2023-02-20T02:14:16.885Z,9.20
2023-02-20T02:16:43.544Z,9.50
2023-02-20T02:19:10.172Z,9.30
2023-02-20T02:21:36.775Z,9.20
2023-02-20T02:24:03.421Z,9.30
2023-02-20T02:26:30.078Z,9.30
2023-02-20T02:28:56.754Z,9.30
2023-02-20T02:31:23.572Z,9.50
2023-02-20T02:33:50.296Z,9.70
2023-02-20T02:36:16.949Z,9.80
2023-02-20T02:38:43.622Z,9.70
2023-02-20T02:41:10.222Z,9.50
2023-02-20T02:43:36.854Z,9.70
2023-02-20T02:46:03.573Z,9.40
2023-02-20T02:48:30.282Z,9.40
2023-02-20T02:50:57.003Z,9.60
2023-02-20T02:53:23.659Z,9.90
2023-02-20T02:55:50.365Z,9.80
2023-02-20T02:58:17.148Z,9.90
2023-02-20T03:00:43.841Z,10.20
2023-02-20T03:03:10.560Z,10.20
2023-02-20T03:05:37.249Z,9.80
2023-02-20T03:08:03.892Z,9.90
2023-02-20T03:10:30.587Z,10.00
2023-02-20T03:12:57.204Z,10.10
2023-02-20T03:15:23.882Z,10.20
2023-02-20T03:17:50.493Z,9.70
2023-02-20T03:20:17.187Z,9.50
2023-02-20T03:22:43.826Z,9.70
2023-02-20T03:25:10.478Z,9.80
2023-02-20T03:27:37.137Z,10.00
2023-02-20T03:30:03.757Z,9.90
2023-02-20T03:32:30.397Z,9.90
2023-02-20T03:34:57.056Z,9.90
2023-02-20T03:37:23.692Z,10.20
2023-02-20T03:39:50.314Z,10.10
2023-02-20T03:42:16.987Z,9.90
2023-02-20T03:44:43.649Z,10.00
2023-02-20T03:47:10.312Z,10.10
2023-02-20T03:49:36.923Z,10.00
2023-02-20T03:52:03.557Z,10.10
2023-02-20T03:54:30.205Z,9.90
2023-02-20T03:56:56.815Z,9.80
2023-02-20T03:59:23.485Z,9.90
2023-02-20T04:01:50.179Z,10.00
2023-02-20T04:04:16.882Z,9.90
2023-02-20T04:06:43.506Z,9.50
2023-02-20T04:09:10.186Z,9.60
2023-02-20T04:11:36.849Z,9.80
2023-02-20T04:14:03.740Z,9.90
2023-02-20T04:16:30.403Z,9.80
2023-02-20T04:18:57.140Z,9.80
2023-02-20T04:21:23.794Z,9.80
2023-02-20T04:23:50.428Z,9.70
2023-02-20T04:26:17.072Z,9.80
2023-02-20T04:28:43.762Z,9.80
2023-02-20T04:31:10.496Z,9.80
2023-02-20T04:33:37.202Z,9.70
2023-02-20T04:36:03.824Z,9.80
2023-02-20T04:38:30.536Z,9.80
2023-02-20T04:40:57.134Z,9.90
2023-02-20T04:43:23.806Z,9.90
2023-02-20T04:45:50.566Z,9.90
2023-02-20T04:48:17.189Z,9.80
2023-02-20T04:50:43.867Z,9.60
2023-02-20T04:53:10.505Z,9.40
2023-02-20T04:55:37.185Z,9.40
2023-02-20T04:58:03.847Z,9.50
2023-02-20T05:00:30.496Z,9.60
2023-02-20T05:02:57.234Z,9.60
2023-02-20T05:05:23.931Z,9.60
2023-02-20T05:07:50.562Z,9.40
2023-02-20T05:10:17.199Z,9.10
2023-02-20T05:12:43.855Z,8.90
2023-02-20T05:15:10.507Z,9.10
2023-02-20T05:17:37.131Z,9.30
2023-02-20T05:20:03.758Z,9.50
2023-02-20T05:22:30.438Z,9.50
2023-02-20T05:24:57.050Z,9.50
2023-02-20T05:27:23.743Z,9.50
2023-02-20T05:29:50.385Z,9.50
2023-02-20T05:32:17.110Z,9.30
2023-02-20T05:34:43.780Z,9.30
2023-02-20T05:37:10.459Z,9.40
2023-02-20T05:39:37.075Z,9.30
2023-02-20T05:42:03.749Z,8.80
2023-02-20T05:44:30.375Z,8.70
2023-02-20T05:46:57.043Z,9.00
2023-02-20T05:49:23.698Z,9.10
2023-02-20T05:51:50.377Z,8.60
2023-02-20T05:54:17.081Z,8.90
2023-02-20T05:56:43.900Z,9.00
2023-02-20T05:59:10.559Z,8.80
2023-02-20T06:01:37.202Z,8.50
2023-02-20T06:04:03.925Z,8.70
2023-02-20T06:06:30.707Z,8.90
2023-02-20T06:08:57.407Z,9.00
2023-02-20T06:11:24.127Z,8.90
2023-02-20T06:13:50.800Z,8.90
2023-02-20T06:16:17.413Z,9.00
2023-02-20T06:18:44.041Z,8.80
2023-02-20T06:21:10.715Z,8.90
2023-02-20T06:23:37.386Z,9.00
2023-02-20T06:26:04.005Z,9.10
2023-02-20T06:28:30.629Z,9.00
2023-02-20T06:30:57.257Z,9.00
2023-02-20T06:33:23.904Z,9.10
2023-02-20T06:35:50.579Z,9.10
2023-02-20T06:38:17.217Z,9.10
2023-02-20T06:40:43.885Z,9.20
2023-02-20T06:43:10.555Z,9.30
2023-02-20T06:45:37.219Z,9.30
2023-02-20T06:48:03.872Z,8.90
2023-02-20T06:50:30.509Z,8.80
2023-02-20T06:52:57.191Z,9.00
2023-02-20T06:55:23.828Z,8.60
2023-02-20T06:57:50.461Z,8.90
2023-02-20T07:00:18.227Z,9.00
2023-02-20T07:02:44.893Z,8.80
2023-02-20T07:05:11.608Z,8.60
2023-02-20T07:07:38.244Z,8.60
2023-02-20T07:10:04.916Z,9.10
2023-02-20T07:12:32.359Z,9.40
2023-02-20T07:14:59.203Z,9.70
2023-02-20T07:17:25.934Z,9.80
2023-02-20T07:19:53.318Z,9.90
2023-02-20T07:22:19.923Z,9.90
2023-02-20T07:24:46.761Z,9.90
2023-02-20T07:27:13.433Z,9.90
2023-02-20T07:29:40.140Z,9.90
2023-02-20T07:32:06.783Z,10.00
2023-02-20T07:34:33.454Z,10.10
2023-02-20T07:37:00.111Z,10.30
2023-02-20T07:39:26.753Z,10.00
2023-02-20T07:41:53.453Z,9.80
2023-02-20T07:44:20.192Z,9.90
2023-02-20T07:46:46.866Z,10.10
2023-02-20T07:49:13.576Z,9.90
2023-02-20T07:51:40.209Z,9.90
2023-02-20T07:54:06.852Z,9.80
2023-02-20T07:56:33.552Z,9.80
2023-02-20T07:59:01.018Z,9.80
2023-02-20T08:01:27.807Z,9.80
2023-02-20T08:03:54.477Z,10.00
2023-02-20T08:06:21.097Z,9.90
2023-02-20T08:08:47.723Z,9.90
2023-02-20T08:11:14.351Z,9.70
2023-02-20T08:13:40.977Z,9.90
2023-02-20T08:16:07.701Z,10.20
2023-02-20T08:18:34.487Z,10.50
2023-02-20T08:21:01.662Z,10.70
2023-02-20T08:23:28.546Z,10.80
2023-02-20T08:25:55.323Z,10.70
2023-02-20T08:28:22.387Z,10.70
2023-02-20T08:30:49.640Z,10.40
2023-02-20T08:33:16.367Z,10.40
2023-02-20T08:35:43.371Z,10.20
2023-02-20T08:38:10.336Z,9.80
2023-02-20T08:40:37.182Z,9.90
2023-02-20T08:43:04.232Z,9.80
2023-02-20T08:45:31.110Z,9.90
2023-02-20T08:47:58.025Z,9.90
2023-02-20T08:50:24.873Z,9.70
2023-02-20T08:52:51.979Z,9.80
2023-02-20T08:55:19.263Z,10.30
2023-02-20T08:57:46.013Z,10.40
2023-02-20T09:00:13.021Z,10.60
2023-02-20T09:02:39.716Z,10.90
2023-02-20T09:05:06.449Z,10.90
2023-02-20T09:07:33.119Z,11.30
2023-02-20T09:09:59.739Z,11.10
2023-02-20T09:12:26.844Z,11.20
2023-02-20T09:14:53.580Z,11.10
2023-02-20T09:17:20.275Z,11.40
2023-02-20T09:19:46.980Z,11.60
2023-02-20T09:22:13.803Z,11.60
2023-02-20T09:24:40.481Z,11.90
2023-02-20T09:27:07.264Z,12.00
2023-02-20T09:29:33.972Z,12.10
2023-02-20T09:32:00.770Z,12.20
2023-02-20T09:34:27.957Z,12.10
2023-02-20T09:36:55.608Z,12.40
2023-02-20T09:39:22.684Z,12.20
2023-02-20T09:41:49.479Z,12.20
2023-02-20T09:44:16.148Z,12.60
2023-02-20T09:46:42.836Z,12.60
2023-02-20T09:49:09.941Z,12.30
2023-02-20T09:51:36.688Z,12.60
2023-02-20T09:54:03.399Z,12.90
2023-02-20T09:56:30.131Z,13.20
2023-02-20T09:58:56.890Z,13.20
2023-02-20T10:01:23.633Z,12.90
2023-02-20T10:03:50.353Z,13.40
2023-02-20T10:06:17.068Z,13.10
2023-02-20T10:08:43.965Z,12.80
2023-02-20T10:11:11.068Z,13.00
2023-02-20T10:13:37.748Z,13.20
2023-02-20T10:16:04.567Z,13.50
2023-02-20T10:18:31.298Z,13.50
2023-02-20T10:20:58.064Z,13.60
2023-02-20T10:23:24.739Z,13.50
2023-02-20T10:25:51.369Z,13.60
2023-02-20T10:28:18.069Z,14.00
2023-02-20T10:30:44.801Z,13.90
2023-02-20T10:33:11.534Z,13.70
2023-02-20T10:35:38.145Z,13.80
2023-02-20T10:38:04.798Z,13.70
2023-02-20T10:40:31.481Z,13.80
2023-02-20T10:42:58.168Z,14.00
2023-02-20T10:45:24.846Z,13.70
2023-02-20T10:47:51.498Z,14.20
2023-02-20T10:50:18.103Z,14.40
2023-02-20T10:52:44.815Z,14.70
2023-02-20T10:55:11.504Z,14.90
2023-02-20T10:57:38.169Z,15.00
2023-02-20T11:00:04.867Z,15.40
2023-02-20T11:02:31.496Z,15.00
2023-02-20T11:04:58.154Z,14.60
2023-02-20T11:07:24.788Z,14.60
2023-02-20T11:09:51.403Z,14.30
2023-02-20T11:12:18.030Z,14.50
2023-02-20T11:17:28.748Z,14.80
2023-02-20T11:19:55.495Z,14.30
2023-02-20T11:22:22.206Z,14.60
2023-02-20T11:24:48.868Z,14.80
2023-02-20T11:27:15.571Z,15.40
2023-02-20T11:29:42.262Z,15.50
2023-02-20T11:32:08.976Z,15.70
2023-02-20T11:34:35.604Z,16.10
2023-02-20T11:37:02.272Z,16.30
2023-02-20T11:39:28.944Z,16.80
2023-02-20T11:41:55.625Z,16.40
2023-02-20T11:44:22.285Z,16.70
2023-02-20T11:46:48.962Z,16.80
2023-02-20T11:49:15.605Z,16.40
2023-02-20T11:51:42.254Z,16.60
2023-02-20T11:54:08.956Z,16.70
2023-02-20T11:56:35.608Z,16.60
2023-02-20T11:59:02.226Z,17.00
2023-02-20T12:01:28.861Z,17.30
2023-02-20T12:03:55.543Z,17.70
2023-02-20T12:06:22.226Z,17.80
2023-02-20T12:08:48.913Z,17.50
2023-02-20T12:11:15.587Z,17.20
2023-02-20T12:13:42.249Z,17.60
2023-02-20T12:16:08.890Z,17.60
2023-02-20T12:18:37.553Z,17.70
2023-02-20T12:21:04.209Z,17.70
2023-02-20T12:23:30.818Z,17.90
2023-02-20T12:25:57.442Z,17.70
2023-02-20T12:28:24.109Z,18.10
2023-02-20T12:30:50.734Z,17.60
2023-02-20T12:33:17.408Z,17.30
2023-02-20T12:35:44.099Z,17.60
2023-02-20T12:38:10.816Z,17.70
2023-02-20T12:40:37.519Z,17.70
2023-02-20T12:43:04.156Z,17.70
2023-02-20T12:45:30.911Z,17.70
2023-02-20T12:47:57.509Z,17.90
2023-02-20T12:50:24.179Z,17.70
2023-02-20T12:52:50.815Z,17.40
2023-02-20T12:55:19.229Z,17.50
2023-02-20T12:57:46.034Z,18.10
2023-02-20T13:00:12.704Z,17.80
2023-02-20T13:02:42.668Z,18.10
2023-02-20T13:05:09.791Z,18.50
2023-02-20T13:07:36.491Z,18.50
2023-02-20T13:10:03.191Z,18.20
2023-02-20T13:12:29.850Z,18.50
2023-02-20T13:14:56.525Z,18.50
2023-02-20T13:17:23.183Z,18.10
2023-02-20T13:19:49.875Z,18.10
2023-02-20T13:22:16.497Z,17.90
2023-02-20T13:24:43.144Z,18.10
2023-02-20T13:27:09.804Z,18.00
2023-02-20T13:29:36.485Z,18.10
2023-02-20T13:32:03.305Z,18.00
2023-02-20T13:34:30.185Z,18.30
2023-02-20T13:36:56.842Z,18.50
2023-02-20T13:39:23.458Z,18.20
2023-02-20T13:41:50.189Z,18.20
2023-02-20T13:44:16.803Z,18.40
2023-02-20T13:46:43.399Z,19.10
2023-02-20T13:49:10.089Z,19.30
2023-02-20T13:51:36.777Z,19.60
2023-02-20T13:54:03.458Z,19.30
2023-02-20T13:56:30.086Z,19.60
2023-02-20T13:58:56.732Z,19.90
2023-02-20T14:01:23.414Z,19.60
2023-02-20T14:03:50.216Z,19.40
2023-02-20T14:06:16.893Z,19.10
2023-02-20T14:08:43.532Z,18.70
2023-02-20T14:11:10.192Z,18.80
2023-02-20T14:13:40.469Z,18.70
2023-02-20T14:16:07.849Z,18.90
2023-02-20T14:18:34.564Z,19.00
2023-02-20T14:21:01.297Z,18.80
2023-02-20T14:23:28.169Z,18.80
2023-02-20T14:26:00.210Z,18.50
2023-02-20T14:28:27.554Z,18.50
2023-02-20T14:30:54.243Z,18.50
2023-02-20T14:33:20.945Z,18.60
2023-02-20T14:35:47.643Z,18.60
2023-02-20T14:38:14.514Z,18.20
2023-02-20T14:40:41.157Z,18.00
2023-02-20T14:43:08.025Z,17.90
2023-02-20T14:45:34.760Z,17.80
2023-02-20T14:48:01.497Z,18.00
2023-02-20T14:50:28.504Z,17.60
2023-02-20T14:52:55.266Z,17.80
2023-02-20T14:55:21.909Z,17.80
2023-02-20T14:57:48.765Z,17.80
2023-02-20T15:00:15.466Z,17.50
2023-02-20T15:02:42.250Z,17.50
2023-02-20T15:05:08.932Z,17.70
2023-02-20T15:07:35.673Z,17.90
2023-02-20T15:10:02.357Z,18.00
2023-02-20T15:12:29.220Z,17.90
2023-02-20T15:14:55.856Z,18.00
2023-02-20T15:17:22.516Z,18.00
2023-02-20T15:19:49.225Z,17.80
2023-02-20T15:22:15.937Z,17.80
2023-02-20T15:24:42.673Z,17.80
2023-02-20T15:27:09.378Z,17.80
2023-02-20T15:29:36.090Z,17.80
2023-02-20T15:32:02.868Z,17.70
2023-02-20T15:34:29.538Z,17.80
2023-02-20T15:36:56.251Z,17.70
2023-02-20T15:39:22.959Z,17.60
2023-02-20T15:41:49.918Z,17.30
2023-02-20T15:44:16.582Z,16.60
2023-02-20T15:46:43.349Z,16.70
2023-02-20T15:49:19.308Z,16.70
2023-02-20T15:51:47.979Z,16.50
2023-02-20T15:54:14.663Z,16.60
2023-02-20T15:56:41.406Z,16.70
2023-02-20T15:59:08.245Z,16.80
2023-02-20T16:01:34.961Z,16.70
2023-02-20T16:04:01.649Z,16.60
2023-02-20T16:06:28.387Z,16.50
2023-02-20T16:08:55.104Z,16.40
2023-02-20T16:11:21.878Z,16.50
2023-02-20T16:13:48.542Z,16.10
2023-02-20T16:16:23.864Z,15.90
2023-02-20T16:18:51.826Z,15.90
2023-02-20T16:21:18.757Z,15.90
2023-02-20T16:23:45.448Z,15.30
2023-02-20T16:26:12.500Z,15.30
2023-02-20T16:28:39.367Z,15.20
2023-02-20T16:31:06.010Z,15.20
2023-02-20T16:33:32.791Z,15.20
2023-02-20T16:35:59.449Z,15.20
2023-02-20T16:38:26.988Z,15.00
2023-02-20T16:40:53.718Z,14.80
2023-02-20T16:43:20.361Z,14.80
2023-02-20T16:45:47.011Z,14.70
2023-02-20T16:48:13.661Z,14.70
2023-02-20T16:50:40.295Z,14.40
2023-02-20T16:53:06.925Z,14.50
2023-02-20T16:55:33.593Z,14.50
2023-02-20T16:58:00.400Z,14.50
2023-02-20T17:00:27.060Z,14.40
2023-02-20T17:02:53.728Z,14.00
2023-02-20T17:05:20.540Z,13.50
2023-02-20T17:07:47.232Z,13.70
2023-02-20T17:10:13.900Z,13.80
2023-02-20T17:12:40.514Z,13.80
2023-02-20T17:15:07.166Z,13.80
2023-02-20T17:17:33.765Z,13.80
2023-02-20T17:20:00.406Z,13.60
2023-02-20T17:22:27.071Z,13.00
2023-02-20T17:24:53.693Z,13.30
2023-02-20T17:27:20.365Z,13.20
2023-02-20T17:29:47.111Z,12.30
2023-02-20T17:32:13.815Z,12.70
2023-02-20T17:34:40.548Z,12.80
2023-02-20T17:37:07.171Z,12.80
2023-02-20T17:39:33.882Z,12.90
2023-02-20T17:42:00.539Z,12.50
2023-02-20T17:44:27.245Z,12.20
2023-02-20T17:46:53.950Z,12.50
2023-02-20T17:49:20.694Z,12.70
2023-02-20T17:51:47.377Z,12.90
2023-02-20T17:54:13.972Z,12.90
2023-02-20T17:56:40.647Z,12.80
2023-02-20T17:59:07.316Z,12.40
2023-02-20T18:01:34.036Z,12.30
2023-02-20T18:04:00.718Z,12.20
2023-02-20T18:06:27.374Z,11.70
2023-02-20T18:08:54.024Z,11.90
2023-02-20T18:11:20.666Z,11.50
2023-02-20T18:13:47.357Z,11.20
2023-02-20T18:16:14.512Z,11.50
2023-02-20T18:18:41.425Z,11.60
2023-02-20T18:21:08.131Z,11.60
2023-02-20T18:23:34.764Z,11.70
2023-02-20T18:26:01.421Z,11.00
2023-02-20T18:28:28.111Z,11.30
2023-02-20T18:30:54.759Z,11.60
2023-02-20T18:33:21.419Z,11.20
2023-02-20T18:35:55.505Z,11.50
2023-02-20T18:38:32.730Z,11.60
2023-02-20T18:40:59.421Z,11.40
2023-02-20T18:43:26.060Z,11.40
2023-02-20T18:45:52.914Z,11.40
2023-02-20T18:48:19.576Z,11.50
2023-02-20T18:50:47.337Z,11.60
2023-02-20T18:53:13.940Z,11.70
2023-02-20T18:55:40.626Z,11.40
2023-02-20T18:58:07.273Z,11.50
2023-02-20T19:00:34.010Z,11.60
2023-02-20T19:03:01.264Z,11.50
2023-02-20T19:05:27.964Z,11.50
2023-02-20T19:07:54.615Z,11.40
2023-02-20T19:10:21.265Z,11.20
2023-02-20T19:12:47.947Z,11.30
2023-02-20T19:15:14.598Z,11.10
2023-02-20T19:17:41.314Z,11.10
2023-02-20T19:20:07.942Z,11.30
2023-02-20T19:22:34.616Z,11.20
2023-02-20T19:25:01.326Z,10.90
2023-02-20T19:27:28.025Z,10.90
2023-02-20T19:29:54.859Z,10.70
2023-02-20T19:32:21.618Z,10.70
2023-02-20T19:34:48.604Z,10.60
2023-02-20T19:37:15.245Z,10.30
2023-02-20T19:39:41.973Z,9.70
2023-02-20T19:42:08.635Z,9.30
2023-02-20T19:44:35.308Z,9.70
2023-02-20T19:47:01.925Z,9.90
2023-02-20T19:49:28.576Z,9.90
2023-02-20T19:51:55.223Z,10.10
2023-02-20T19:54:21.834Z,10.40
2023-02-20T19:56:48.454Z,10.50
2023-02-20T19:59:15.118Z,10.30
2023-02-20T20:01:41.784Z,10.30
2023-02-20T20:04:08.416Z,10.20
2023-02-20T20:06:35.084Z,10.10
2023-02-20T20:09:13.527Z,10.10
2023-02-20T20:11:41.725Z,10.00
2023-02-20T20:14:08.365Z,10.10
2023-02-20T20:16:36.945Z,9.80
2023-02-20T20:19:03.653Z,9.90
2023-02-20T20:21:32.601Z,9.80
2023-02-20T20:23:59.276Z,9.30
2023-02-20T20:26:25.985Z,9.60
2023-02-20T20:28:52.688Z,9.50
2023-02-20T20:31:19.393Z,9.50
2023-02-20T20:33:46.079Z,9.30
2023-02-20T20:36:12.758Z,9.30
2023-02-20T20:38:39.391Z,9.50
2023-02-20T20:41:06.010Z,9.60
2023-02-20T20:43:32.639Z,8.70
2023-02-20T20:45:59.343Z,8.90
2023-02-20T20:48:25.953Z,8.90
2023-02-20T20:50:52.653Z,9.10
2023-02-20T20:53:19.280Z,9.20
2023-02-20T20:55:45.922Z,9.40
2023-02-20T20:58:12.524Z,9.70
2023-02-20T21:00:39.162Z,9.30
2023-02-20T21:03:05.868Z,9.40
2023-02-20T21:05:32.550Z,9.30
2023-02-20T21:07:59.143Z,9.40
2023-02-20T21:10:25.766Z,9.50
2023-02-20T21:12:52.467Z,9.50
2023-02-20T21:15:19.077Z,9.40
2023-02-20T21:17:45.738Z,9.40
2023-02-20T21:20:12.417Z,9.10
2023-02-20T21:22:39.058Z,9.10
2023-02-20T21:25:05.749Z,9.10
2023-02-20T21:27:32.484Z,9.10
2023-02-20T21:29:59.159Z,9.00
2023-02-20T21:32:25.847Z,8.80
2023-02-20T21:34:52.490Z,8.70
2023-02-20T21:37:19.110Z,8.50
2023-02-20T21:39:45.777Z,8.10
2023-02-20T21:42:12.442Z,8.10
2023-02-20T21:44:39.115Z,7.20
2023-02-20T21:47:05.784Z,7.10
2023-02-20T21:49:32.448Z,7.50
2023-02-20T21:51:59.106Z,7.60
2023-02-20T21:54:25.822Z,7.20
2023-02-20T21:56:52.441Z,7.30
2023-02-20T21:59:19.113Z,7.20
2023-02-20T22:01:45.737Z,6.80
2023-02-20T22:04:12.433Z,7.00
2023-02-20T22:06:39.132Z,7.30
2023-02-20T22:09:05.772Z,7.30
2023-02-20T22:11:32.400Z,7.50
2023-02-20T22:13:59.094Z,7.40
2023-02-20T22:16:25.787Z,7.10
2023-02-20T22:18:52.434Z,7.40
2023-02-20T22:21:19.097Z,7.10
2023-02-20T22:23:45.755Z,7.40
2023-02-20T22:26:12.394Z,7.60
2023-02-20T22:28:38.998Z,6.80
2023-02-20T22:31:05.788Z,7.00
2023-02-20T22:33:32.594Z,7.10
2023-02-20T22:35:59.265Z,7.40
2023-02-20T22:38:25.955Z,7.50
2023-02-20T22:40:52.655Z,7.70
2023-02-20T22:43:19.294Z,7.60
2023-02-20T22:45:45.950Z,6.90
2023-02-20T22:48:12.588Z,7.10
2023-02-20T22:50:39.259Z,6.70
2023-02-20T22:53:05.928Z,6.40
2023-02-20T22:55:32.615Z,6.30
2023-02-20T22:57:59.286Z,6.50
2023-02-20T23:00:26.059Z,5.90
2023-02-20T23:02:52.712Z,6.50
2023-02-20T23:05:19.354Z,6.60
2023-02-20T23:07:46.008Z,6.60
2023-02-20T23:10:12.660Z,6.30
2023-02-20T23:12:39.302Z,6.40
2023-02-20T23:15:05.975Z,6.70
2023-02-20T23:17:36.928Z,6.80
2023-02-20T23:20:04.235Z,6.40
2023-02-20T23:22:30.892Z,6.10
2023-02-20T23:24:57.587Z,6.30
2023-02-20T23:27:24.220Z,5.70
2023-02-20T23:29:50.852Z,5.90
2023-02-20T23:32:17.609Z,6.20
2023-02-20T23:34:44.357Z,5.90
2023-02-20T23:37:10.960Z,6.10
2023-02-20T23:39:37.631Z,5.80
2023-02-20T23:42:04.328Z,6.00
2023-02-20T23:44:30.989Z,6.20
2023-02-20T23:46:57.680Z,6.10
2023-02-20T23:49:24.321Z,6.20
2023-02-20T23:51:50.997Z,5.70
2023-02-20T23:54:17.596Z,5.50
2023-02-20T23:56:44.287Z,5.70
2023-02-20T23:59:10.893Z,5.80
